Airfield :
LOGIN :

Register | Disclaimer

   EN    FR    IT 

 










Legend :    VFR   Marginal VFR   IFR   Intensive IFR   Very Intensive IFR
Visi :
Ceiling :
>= 8 km
>= 3000ft
5 to 8 km
1000 to 3000 ft
1500m to 5 km
500 to 1000 ft
800 to 1500m
200 to 500 ft
< 800m
< 200 ft
Symbols :   Thunderstorms  Fog  Heavy snow  Heavy precipitations  Wind > 20 kt
SIGMETs :     Misc.  Thunderstorms  Icing  Turbulence  Mountain Waves  Volcanic Ashes







- Airport Elevation : 616 ft
- IATA code : PUF
- Download approach charts


LFBP - Pau

CURRENT METAR :
  • 142100Z AUTO 32004KT 9999 BKN044 BKN056 19/15 Q1022 NOSIG

EXPIRED METARs :
  • 142030Z AUTO 30006KT 9999 BKN040 BKN046 20/15 Q1022 NOSIG
  • 142000Z AUTO 26003KT 9999 BKN038 BKN052 20/16 Q1022 NOSIG
  • 141930Z AUTO 26004KT 9999 BKN037 BKN043 20/16 Q1022 NOSIG
  • 141900Z AUTO 27005KT 9999 FEW038 BKN050 21/16 Q1021 NOSIG
  • 141830Z AUTO 28004KT 9999 FEW052 BKN070 22/16 Q1021 NOSIG
  • 141800Z AUTO 27005KT 250V310 9999 OVC070 22/16 Q1021 NOSIG

TAF TAF LFBP
Valid from the 14 at 18:00 until the 15 at 18:00 UTC


141700Z 1418/1518 30008KT 9999 SCT040
BECMG 1420/1422 VRB03KT CAVOK
PROB30
TEMPO 1500/1506 4000 BR
BECMG 1510/1512 06010KT
No reported NOTAMs for that airfield.



MET'MAP, your aeronautical weather chart ! - Copyright ORBIFLY December 2007 - Disclaimer

ORBIFLY MET'MAP TEAM :

Programming & Development : Alexandra Zaïnal
Concept & Development : Baudouin d'Aumeries
Co-Development & Prog : Marc-Olivier Méhu
Technical & hardware support : Manuel Goepfert

Contact : metmap@orbifly.com




SOURCES & CREDITS :

   NOAA